createdAt,value
2017-06-15T04:54:05.271Z,12.10
2017-06-15T04:56:32.316Z,12.70
2017-06-15T04:58:59.084Z,12.87
2017-06-15T05:01:25.899Z,13.37
2017-06-15T05:03:52.667Z,14.90
2017-06-15T05:06:19.441Z,14.43
2017-06-15T05:08:46.254Z,14.33
2017-06-15T05:11:13.050Z,13.37
2017-06-15T05:13:39.825Z,13.10
2017-06-15T05:16:06.637Z,14.37
2017-06-15T05:18:33.408Z,13.97
2017-06-15T05:21:00.214Z,14.40
2017-06-15T05:23:27.031Z,12.30
2017-06-15T05:25:53.820Z,12.40
2017-06-15T05:28:20.603Z,11.70
2017-06-15T05:30:47.430Z,11.93
2017-06-15T05:33:14.183Z,10.33
2017-06-15T05:35:40.953Z,11.37
2017-06-15T05:38:07.755Z,10.40
2017-06-15T05:40:34.581Z,10.60
2017-06-15T05:43:01.336Z,9.50
2017-06-15T05:45:28.122Z,10.07
2017-06-15T05:47:54.902Z,9.97
2017-06-15T05:50:21.663Z,8.03
2017-06-15T05:52:48.458Z,9.03
2017-06-15T05:55:15.285Z,9.20
2017-06-15T05:57:42.055Z,9.20
2017-06-15T06:00:08.862Z,8.67
2017-06-15T06:02:35.636Z,8.57
2017-06-15T06:05:02.409Z,8.70
2017-06-15T06:07:29.199Z,9.40
2017-06-15T06:09:55.963Z,8.20
2017-06-15T06:12:22.738Z,8.17
2017-06-15T06:14:49.541Z,7.43
2017-06-15T06:17:16.307Z,7.77
2017-06-15T06:19:43.051Z,7.10
2017-06-15T06:22:09.857Z,6.10
2017-06-15T06:24:36.626Z,6.03
2017-06-15T06:27:03.371Z,5.70
2017-06-15T06:29:30.139Z,5.60
2017-06-15T06:31:56.906Z,5.97
2017-06-15T06:34:23.696Z,5.97
2017-06-15T06:36:50.492Z,5.10
2017-06-15T06:39:17.236Z,5.40
2017-06-15T06:41:43.999Z,6.00
2017-06-15T06:44:12.019Z,5.60
2017-06-15T06:46:38.791Z,5.33
2017-06-15T06:49:05.547Z,5.73
2017-06-15T06:51:32.349Z,5.83
2017-06-15T06:53:59.087Z,5.20
2017-06-15T06:56:25.902Z,5.63
2017-06-15T06:58:52.691Z,5.10
2017-06-15T07:01:19.461Z,5.07
2017-06-15T07:03:46.204Z,5.30
2017-06-15T07:06:13.008Z,4.63
2017-06-15T07:08:39.770Z,4.43
2017-06-15T07:11:06.550Z,5.10
2017-06-15T07:13:33.357Z,4.70
2017-06-15T07:16:00.118Z,4.37
2017-06-15T07:18:26.870Z,4.87
2017-06-15T07:20:53.686Z,5.47
2017-06-15T07:23:20.456Z,4.80
2017-06-15T07:25:47.231Z,5.50
2017-06-15T07:28:14.030Z,4.17
2017-06-15T07:30:40.797Z,5.17
2017-06-15T07:33:07.568Z,5.07
2017-06-15T07:35:34.367Z,4.80
2017-06-15T07:38:01.129Z,5.03
2017-06-15T07:40:27.937Z,4.70
2017-06-15T07:42:54.743Z,5.00
2017-06-15T07:45:21.509Z,4.70
2017-06-15T07:47:48.247Z,4.87
2017-06-15T07:50:15.073Z,5.20
2017-06-15T07:52:41.901Z,5.30
2017-06-15T07:55:08.718Z,5.23
2017-06-15T07:57:35.556Z,4.50
2017-06-15T08:00:02.309Z,5.17
2017-06-15T08:02:29.072Z,4.67
2017-06-15T08:04:55.878Z,5.20
2017-06-15T08:07:22.640Z,4.37
2017-06-15T08:09:49.399Z,5.07
2017-06-15T08:12:16.219Z,5.00
2017-06-15T08:14:42.988Z,5.10
2017-06-15T08:17:09.777Z,4.83
2017-06-15T08:19:36.561Z,5.57
2017-06-15T08:22:03.305Z,6.17
2017-06-15T08:24:30.051Z,5.57
2017-06-15T08:26:56.844Z,4.47
2017-06-15T08:29:23.595Z,4.40
2017-06-15T08:31:50.343Z,4.93
2017-06-15T08:34:17.138Z,4.40
2017-06-15T08:36:43.908Z,4.67
2017-06-15T08:39:10.669Z,4.40
2017-06-15T08:41:37.470Z,4.97
2017-06-15T08:44:04.241Z,4.53
2017-06-15T08:46:31.003Z,4.13
2017-06-15T08:48:57.775Z,3.97
2017-06-15T08:51:24.548Z,4.80
2017-06-15T08:53:51.314Z,4.80
2017-06-15T08:56:18.100Z,4.20
2017-06-15T08:58:44.883Z,4.30
2017-06-15T09:01:11.690Z,4.23
2017-06-15T09:03:38.935Z,4.20
2017-06-15T09:06:05.716Z,4.03
2017-06-15T09:08:32.495Z,4.00
2017-06-15T09:10:59.294Z,3.97
2017-06-15T09:13:26.062Z,4.10
2017-06-15T09:15:52.825Z,4.00
2017-06-15T09:18:19.630Z,3.73
2017-06-15T09:20:46.397Z,3.03
2017-06-15T09:23:13.154Z,4.17
2017-06-15T09:25:40.794Z,3.47
2017-06-15T09:28:07.535Z,3.80
2017-06-15T09:30:34.275Z,3.97
2017-06-15T09:33:01.051Z,3.83
2017-06-15T09:35:27.823Z,3.40
2017-06-15T09:37:54.562Z,4.37
2017-06-15T09:40:21.331Z,3.43
2017-06-15T09:42:48.105Z,3.87
2017-06-15T09:45:14.867Z,3.67
2017-06-15T09:47:41.658Z,4.37
2017-06-15T09:50:08.415Z,4.17
2017-06-15T09:52:35.182Z,3.57
2017-06-15T09:55:01.982Z,3.40
2017-06-15T09:57:28.737Z,3.47
2017-06-15T09:59:55.507Z,3.23
2017-06-15T10:02:22.314Z,3.30
2017-06-15T10:04:49.047Z,3.50
2017-06-15T10:07:15.820Z,3.77
2017-06-15T10:09:42.629Z,3.33
2017-06-15T10:12:09.392Z,3.57
2017-06-15T10:14:36.160Z,3.57
2017-06-15T10:17:02.974Z,6.07
2017-06-15T10:19:29.727Z,3.63
2017-06-15T10:21:56.481Z,4.57
2017-06-15T10:24:23.267Z,8.70
2017-06-15T10:26:50.042Z,3.77
2017-06-15T10:29:16.880Z,3.47
2017-06-15T10:31:43.675Z,4.60
2017-06-15T10:34:10.411Z,3.20
2017-06-15T10:36:37.191Z,2.80
2017-06-15T10:39:04.038Z,3.27
2017-06-15T10:41:30.806Z,3.50
2017-06-15T10:43:57.563Z,3.40
2017-06-15T10:46:24.354Z,3.47
2017-06-15T10:48:51.098Z,3.80
2017-06-15T10:51:17.862Z,3.90
2017-06-15T10:53:44.679Z,6.37
2017-06-15T10:56:11.430Z,4.27
2017-06-15T10:58:38.194Z,3.40
2017-06-15T11:01:05.001Z,4.07
2017-06-15T11:03:31.749Z,3.10
2017-06-15T11:05:58.505Z,3.10
2017-06-15T11:08:25.299Z,2.97
2017-06-15T11:10:52.047Z,3.57
2017-06-15T11:13:18.785Z,3.27
2017-06-15T11:15:45.564Z,3.40
2017-06-15T11:18:12.329Z,4.10
2017-06-15T11:20:39.066Z,3.37
2017-06-15T11:23:05.852Z,3.20
2017-06-15T11:25:32.612Z,3.57
2017-06-15T11:27:59.357Z,4.60
2017-06-15T11:30:26.155Z,3.50
2017-06-15T11:32:52.927Z,3.50
2017-06-15T11:35:19.696Z,3.67
2017-06-15T11:37:46.497Z,3.70
2017-06-15T11:40:13.264Z,4.17
2017-06-15T11:42:40.012Z,3.50
2017-06-15T11:45:06.819Z,3.50
2017-06-15T11:47:33.578Z,4.10
2017-06-15T11:50:00.331Z,3.97
2017-06-15T11:52:27.577Z,3.60
2017-06-15T11:54:54.335Z,4.30
2017-06-15T11:57:21.088Z,3.73
2017-06-15T11:59:47.886Z,3.30
2017-06-15T12:02:14.646Z,3.63
2017-06-15T12:04:41.384Z,3.53
2017-06-15T12:07:08.172Z,3.30
2017-06-15T12:09:34.945Z,3.23
2017-06-15T12:12:01.692Z,3.53
2017-06-15T12:14:28.467Z,3.40
2017-06-15T12:16:55.248Z,3.10
2017-06-15T12:19:21.985Z,3.50
2017-06-15T12:21:48.773Z,3.17
2017-06-15T12:24:15.540Z,3.57
2017-06-15T12:26:42.275Z,2.90
2017-06-15T12:29:09.051Z,3.70
2017-06-15T12:31:35.813Z,3.50
2017-06-15T12:34:02.577Z,4.60
2017-06-15T12:36:29.362Z,3.60
2017-06-15T12:38:56.138Z,3.33
2017-06-15T12:41:22.883Z,4.20
2017-06-15T12:43:49.674Z,4.17
2017-06-15T12:46:16.439Z,3.77
2017-06-15T12:48:43.202Z,3.93
2017-06-15T12:51:09.996Z,3.60
2017-06-15T12:53:36.753Z,4.13
2017-06-15T12:56:03.522Z,3.80
2017-06-15T12:58:30.299Z,3.07
2017-06-15T13:00:57.061Z,3.60
2017-06-15T13:03:23.811Z,3.60
2017-06-15T13:05:50.602Z,3.47
2017-06-15T13:08:18.566Z,3.80
2017-06-15T13:10:45.329Z,3.40
2017-06-15T13:13:12.145Z,3.80
2017-06-15T13:15:38.961Z,4.20
2017-06-15T13:18:05.805Z,3.83
2017-06-15T13:20:33.256Z,3.63
2017-06-15T13:23:00.027Z,3.63
2017-06-15T13:25:26.765Z,4.13
2017-06-15T13:27:53.538Z,3.60
2017-06-15T13:30:20.312Z,3.90
2017-06-15T13:32:47.062Z,3.83
2017-06-15T13:35:13.834Z,3.60
2017-06-15T13:37:40.578Z,3.73
2017-06-15T13:40:07.347Z,3.57
2017-06-15T13:42:34.146Z,4.23
2017-06-15T13:45:00.879Z,4.13
2017-06-15T13:47:27.647Z,4.13
2017-06-15T13:49:54.442Z,3.90
2017-06-15T13:52:21.203Z,4.30
2017-06-15T13:54:47.955Z,3.73
2017-06-15T13:57:14.746Z,4.30
2017-06-15T13:59:41.503Z,3.50
2017-06-15T14:02:08.254Z,4.50
2017-06-15T14:04:35.032Z,4.37
2017-06-15T14:07:01.789Z,3.83
2017-06-15T14:09:28.529Z,3.77
2017-06-15T14:11:55.328Z,3.93
2017-06-15T14:14:22.090Z,5.13
2017-06-15T14:16:48.898Z,4.50
2017-06-15T14:19:15.668Z,4.43
2017-06-15T14:21:42.412Z,3.80
2017-06-15T14:24:09.192Z,4.10
2017-06-15T14:26:35.998Z,4.37
2017-06-15T14:29:03.888Z,4.57
2017-06-15T14:31:30.656Z,4.00
2017-06-15T14:33:57.439Z,4.03
2017-06-15T14:36:24.202Z,4.23
2017-06-15T14:38:50.943Z,3.97
2017-06-15T14:41:17.746Z,4.60
2017-06-15T14:43:44.518Z,4.20
2017-06-15T14:46:11.255Z,4.40
2017-06-15T14:48:38.031Z,4.87
2017-06-15T14:51:04.790Z,4.20
2017-06-15T14:53:31.536Z,4.90
2017-06-15T14:55:58.339Z,4.80
2017-06-15T14:58:25.102Z,4.60
2017-06-15T15:00:51.857Z,4.20
2017-06-15T15:03:18.665Z,4.50
2017-06-15T15:05:45.399Z,4.60
2017-06-15T15:08:12.206Z,4.43
2017-06-15T15:10:38.979Z,4.10
2017-06-15T15:13:05.758Z,5.07
2017-06-15T15:15:32.509Z,4.10
2017-06-15T15:17:59.418Z,3.73
2017-06-15T15:20:26.163Z,4.57
2017-06-15T15:22:52.907Z,4.80
2017-06-15T15:25:19.737Z,4.53
2017-06-15T15:27:46.528Z,4.60
2017-06-15T15:30:13.283Z,4.33
2017-06-15T15:32:40.094Z,4.50
2017-06-15T15:35:06.855Z,4.60
2017-06-15T15:37:33.599Z,4.57
2017-06-15T15:40:00.385Z,4.50
2017-06-15T15:42:27.137Z,4.60
2017-06-15T15:44:53.913Z,5.13
2017-06-15T15:47:20.682Z,4.80
2017-06-15T15:49:47.446Z,5.07
2017-06-15T15:52:14.202Z,4.83
2017-06-15T15:54:41.018Z,4.80
2017-06-15T15:57:07.777Z,4.67
2017-06-15T15:59:34.589Z,5.83
2017-06-15T16:02:01.400Z,4.20
2017-06-15T16:04:28.138Z,4.40
2017-06-15T16:06:54.912Z,4.47
2017-06-15T16:09:21.786Z,4.80
2017-06-15T16:11:48.625Z,5.23
2017-06-15T16:14:15.386Z,4.90
2017-06-15T16:16:42.363Z,4.40
2017-06-15T16:19:09.210Z,4.50
2017-06-15T16:21:35.975Z,5.27
2017-06-15T16:24:02.795Z,4.70
2017-06-15T16:26:29.534Z,4.50
2017-06-15T16:28:56.323Z,5.00
2017-06-15T16:31:23.113Z,5.33
2017-06-15T16:33:49.900Z,4.97
2017-06-15T16:36:16.670Z,5.20
2017-06-15T16:38:44.635Z,7.00
2017-06-15T16:41:11.383Z,7.90
2017-06-15T16:43:38.162Z,7.17
2017-06-15T16:46:04.967Z,5.40
2017-06-15T16:48:31.737Z,4.90
2017-06-15T16:50:58.504Z,5.40
2017-06-15T16:53:25.322Z,5.00
2017-06-15T16:55:52.075Z,6.00
2017-06-15T16:58:18.843Z,5.70
2017-06-15T17:00:45.659Z,5.97
2017-06-15T17:03:12.428Z,5.10
2017-06-15T17:05:39.201Z,4.73
2017-06-15T17:08:05.983Z,4.50
2017-06-15T17:10:32.787Z,4.97
2017-06-15T17:12:59.611Z,5.13
2017-06-15T17:15:26.426Z,4.70
2017-06-15T17:17:53.216Z,5.73
2017-06-15T17:20:20.024Z,5.00
2017-06-15T17:22:46.819Z,5.50
2017-06-15T17:25:13.571Z,4.90
2017-06-15T17:27:40.353Z,4.70
2017-06-15T17:30:07.136Z,4.90
2017-06-15T17:32:33.902Z,4.57
2017-06-15T17:35:00.653Z,4.87
2017-06-15T17:37:27.444Z,4.83
2017-06-15T17:39:54.191Z,4.83
2017-06-15T17:42:20.966Z,4.73
2017-06-15T17:44:47.756Z,5.17
2017-06-15T17:47:14.546Z,4.80
2017-06-15T17:49:41.323Z,4.90
2017-06-15T17:52:08.150Z,4.53
2017-06-15T17:54:34.951Z,5.10
2017-06-15T17:57:01.723Z,5.03
2017-06-15T17:59:28.511Z,5.33
2017-06-15T18:01:55.264Z,4.80
2017-06-15T18:04:22.053Z,4.90
2017-06-15T18:06:48.959Z,5.70
2017-06-15T18:09:15.808Z,6.10
2017-06-15T18:11:42.571Z,6.03
2017-06-15T18:14:09.363Z,5.50
2017-06-15T18:16:36.128Z,5.33
2017-06-15T18:19:02.897Z,6.27
2017-06-15T18:21:29.675Z,6.33
2017-06-15T18:23:56.419Z,6.13
2017-06-15T18:26:23.196Z,5.87
2017-06-15T18:28:50.006Z,6.40
2017-06-15T18:31:16.810Z,6.30
2017-06-15T18:33:43.564Z,6.40
2017-06-15T18:36:10.362Z,5.80
2017-06-15T18:38:37.130Z,5.30
2017-06-15T18:41:03.904Z,5.40
2017-06-15T18:43:30.797Z,5.17
2017-06-15T18:45:57.567Z,5.40
2017-06-15T18:48:24.359Z,5.33
2017-06-15T18:50:51.156Z,4.97
2017-06-15T18:53:17.928Z,5.13
2017-06-15T18:55:44.707Z,5.13
2017-06-15T18:58:11.516Z,5.53
2017-06-15T19:00:38.277Z,5.30
2017-06-15T19:03:05.056Z,5.63
2017-06-15T19:05:31.940Z,4.90
2017-06-15T19:07:58.731Z,5.67
2017-06-15T19:10:25.502Z,5.00
2017-06-15T19:12:52.280Z,5.23
2017-06-15T19:15:19.054Z,5.57
2017-06-15T19:17:45.811Z,5.40
2017-06-15T19:20:12.619Z,5.43
2017-06-15T19:22:39.367Z,4.90
2017-06-15T19:25:06.140Z,5.80
2017-06-15T19:27:32.963Z,5.43
2017-06-15T19:29:59.739Z,6.10
2017-06-15T19:32:26.737Z,6.00
2017-06-15T19:34:53.597Z,5.30
2017-06-15T19:37:20.344Z,6.30
2017-06-15T19:39:47.129Z,6.20
2017-06-15T19:42:13.935Z,6.27
2017-06-15T19:47:13.707Z,6.40
2017-06-15T19:49:40.483Z,6.33
2017-06-15T19:52:07.296Z,7.17
2017-06-15T19:54:34.053Z,6.93
2017-06-15T19:57:00.855Z,6.93
2017-06-15T19:59:27.619Z,7.33
2017-06-15T20:01:54.392Z,7.03
2017-06-15T20:04:21.200Z,7.40
2017-06-15T20:06:47.973Z,6.57
2017-06-15T20:09:14.727Z,7.40
2017-06-15T20:11:41.508Z,7.50
2017-06-15T20:14:08.242Z,8.00
2017-06-15T20:16:34.979Z,8.03
2017-06-15T20:19:01.756Z,7.37
2017-06-15T20:21:28.537Z,7.90
2017-06-15T20:23:55.283Z,9.07
2017-06-15T20:26:22.134Z,8.57
2017-06-15T20:28:48.929Z,8.23
2017-06-15T20:31:15.690Z,9.30
2017-06-15T20:33:42.497Z,10.00
2017-06-15T20:36:09.259Z,7.97
2017-06-15T20:38:36.007Z,9.50
2017-06-15T20:41:02.801Z,9.13
2017-06-15T20:43:29.600Z,8.67
2017-06-15T20:45:56.350Z,8.87
2017-06-15T20:48:23.151Z,11.17
2017-06-15T20:50:49.931Z,15.50
2017-06-15T20:53:16.701Z,17.30
2017-06-15T20:55:43.839Z,19.50
2017-06-15T20:58:10.610Z,19.77
2017-06-15T21:00:37.397Z,24.07
2017-06-15T21:03:04.205Z,26.70
2017-06-15T21:05:30.979Z,25.70
2017-06-15T21:07:57.755Z,29.10
2017-06-15T21:10:24.552Z,29.37
2017-06-15T21:12:51.363Z,33.37
2017-06-15T21:15:18.145Z,35.40
2017-06-15T21:17:44.941Z,34.20
2017-06-15T21:20:11.707Z,36.17
2017-06-15T21:22:38.473Z,35.83
2017-06-15T21:25:05.287Z,38.37
2017-06-15T21:27:32.035Z,34.30
2017-06-15T21:29:58.790Z,40.20
2017-06-15T21:32:25.586Z,42.60
2017-06-15T21:34:52.351Z,38.37
2017-06-15T21:37:19.120Z,41.97
2017-06-15T21:39:45.903Z,38.90
2017-06-15T21:42:12.648Z,42.30
2017-06-15T21:44:39.420Z,42.53
2017-06-15T21:47:06.214Z,34.40
2017-06-15T21:49:32.993Z,41.80
2017-06-15T21:51:59.761Z,42.13
2017-06-15T21:54:26.598Z,41.83
2017-06-15T21:56:53.362Z,35.87
2017-06-15T21:59:20.107Z,41.27
2017-06-15T22:01:46.926Z,37.70
2017-06-15T22:04:13.671Z,41.07
2017-06-15T22:06:40.427Z,36.17
2017-06-15T22:09:07.250Z,37.60
2017-06-15T22:11:34.034Z,38.77
2017-06-15T22:14:00.783Z,36.77
2017-06-15T22:16:27.586Z,36.13
2017-06-15T22:18:54.361Z,36.87
2017-06-15T22:21:21.125Z,36.33
